createdAt,value
2023-04-27T00:10:09.128Z,43.00
2023-04-27T00:20:33.978Z,38.70
2023-04-27T00:30:59.641Z,42.10
2023-04-27T00:41:25.133Z,34.10
2023-04-27T00:51:51.165Z,38.00
2023-04-27T01:02:17.576Z,43.10
2023-04-27T01:12:43.637Z,33.00
2023-04-27T01:23:09.275Z,36.10
2023-04-27T01:33:34.929Z,36.80
2023-04-27T01:44:00.882Z,37.10
2023-04-27T01:54:28.691Z,26.90
2023-04-27T02:04:54.712Z,26.10
2023-04-27T02:15:21.078Z,21.50
2023-04-27T02:25:47.086Z,23.60
2023-04-27T02:36:13.207Z,22.90
2023-04-27T02:46:47.463Z,19.70
2023-04-27T02:57:13.214Z,22.00
2023-04-27T03:07:39.208Z,17.40
2023-04-27T03:18:06.687Z,19.00
2023-04-27T03:28:32.219Z,13.50
2023-04-27T03:38:57.917Z,23.60
2023-04-27T03:49:24.109Z,21.80
2023-04-27T03:59:49.683Z,26.60
2023-04-27T04:10:15.548Z,19.90
2023-04-27T04:20:41.956Z,16.60
2023-04-27T04:31:10.095Z,21.30
2023-04-27T04:41:36.676Z,17.10
2023-04-27T04:52:02.447Z,19.10
2023-04-27T05:02:28.596Z,16.00
2023-04-27T05:12:54.703Z,19.70
2023-04-27T05:23:20.550Z,19.50
2023-04-27T05:33:46.511Z,20.10
2023-04-27T05:44:12.324Z,20.00
2023-04-27T05:54:38.243Z,22.30
2023-04-27T06:05:04.166Z,21.20
2023-04-27T06:15:30.441Z,22.90
2023-04-27T06:25:56.388Z,24.90
2023-04-27T06:36:22.331Z,22.20
2023-04-27T06:46:47.864Z,20.40
2023-04-27T06:57:14.384Z,19.60
2023-04-27T07:07:40.121Z,14.60
2023-04-27T07:18:05.844Z,13.50
2023-04-27T07:28:32.760Z,9.50
2023-04-27T07:38:58.877Z,11.30
2023-04-27T07:49:25.141Z,10.10
2023-04-27T07:59:51.444Z,7.00
2023-04-27T08:10:18.091Z,6.90
2023-04-27T08:20:43.632Z,7.60
2023-04-27T08:31:09.515Z,8.00
2023-04-27T08:41:35.843Z,6.30
2023-04-27T08:52:02.053Z,9.80
2023-04-27T09:02:29.891Z,5.10
2023-04-27T09:13:00.239Z,6.30
2023-04-27T09:23:31.486Z,4.40
2023-04-27T09:33:59.002Z,5.80
2023-04-27T09:44:24.933Z,5.90
2023-04-27T09:54:51.082Z,4.70
2023-04-27T10:05:37.174Z,6.60
2023-04-27T10:16:18.509Z,8.10
2023-04-27T10:26:49.389Z,5.80
2023-04-27T10:37:15.172Z,5.10
2023-04-27T10:47:43.065Z,5.90
2023-04-27T10:58:09.052Z,5.70
2023-04-27T11:08:36.898Z,4.40
2023-04-27T11:19:08.469Z,5.40
2023-04-27T11:29:42.526Z,6.20
2023-04-27T11:40:12.249Z,6.10
2023-04-27T11:50:38.244Z,4.50
2023-04-27T12:01:04.756Z,7.90
2023-04-27T12:11:30.745Z,5.20
2023-04-27T12:21:57.293Z,6.10
2023-04-27T12:32:23.762Z,6.90
2023-04-27T12:42:49.695Z,7.50
2023-04-27T12:53:15.363Z,10.80
2023-04-27T13:03:41.484Z,4.60
2023-04-27T13:14:07.426Z,10.40
2023-04-27T13:24:33.555Z,5.40
2023-04-27T13:34:59.923Z,7.90
2023-04-27T13:45:25.952Z,3.50
2023-04-27T13:55:51.745Z,4.30
2023-04-27T14:06:17.803Z,5.10
2023-04-27T14:16:44.507Z,5.80
2023-04-27T14:27:10.031Z,6.90
2023-04-27T14:37:35.555Z,7.00
2023-04-27T14:48:01.639Z,6.70
2023-04-27T14:58:28.020Z,6.70
2023-04-27T15:08:54.106Z,8.30
2023-04-27T15:19:19.896Z,8.80
2023-04-27T15:29:45.916Z,6.40
2023-04-27T15:40:13.479Z,3.50
2023-04-27T15:50:39.799Z,6.90
2023-04-27T16:01:05.490Z,5.40
2023-04-27T16:11:31.610Z,4.50
2023-04-27T16:21:58.092Z,4.20
2023-04-27T16:32:24.221Z,5.80
2023-04-27T16:42:50.350Z,6.50
2023-04-27T16:53:20.628Z,6.70
2023-04-27T17:03:47.570Z,8.40
2023-04-27T17:14:14.350Z,9.30
2023-04-27T17:24:40.494Z,10.00
2023-04-27T17:35:06.885Z,10.70
2023-04-27T17:45:33.184Z,7.20
2023-04-27T17:55:59.331Z,11.50
2023-04-27T18:06:25.039Z,9.10
2023-04-27T18:16:50.622Z,9.70
2023-04-27T18:27:17.228Z,8.30
2023-04-27T18:37:42.881Z,8.80
2023-04-27T18:48:09.133Z,7.90
2023-04-27T18:58:35.067Z,10.40
2023-04-27T19:09:01.120Z,14.80
2023-04-27T19:19:26.912Z,8.20
2023-04-27T19:29:55.525Z,12.30
2023-04-27T19:40:21.800Z,12.50
2023-04-27T19:50:48.227Z,12.50
2023-04-27T20:01:14.275Z,13.60
2023-04-27T20:11:39.838Z,13.70
2023-04-27T20:22:05.738Z,12.10
2023-04-27T20:32:31.715Z,13.20
2023-04-27T20:42:57.541Z,12.00
2023-04-27T20:53:23.178Z,17.60
2023-04-27T21:03:48.960Z,14.70
2023-04-27T21:14:15.199Z,19.10
2023-04-27T21:24:41.500Z,22.10
2023-04-27T21:35:09.115Z,22.60
2023-04-27T21:45:34.913Z,20.40
2023-04-27T21:56:01.149Z,22.90
2023-04-27T22:06:27.509Z,35.90
2023-04-27T22:16:53.507Z,23.90
2023-04-27T22:27:19.894Z,17.60
2023-04-27T22:37:47.792Z,24.90
2023-04-27T22:48:14.119Z,34.00
2023-04-27T22:58:40.411Z,33.70
2023-04-27T23:09:06.519Z,34.80
2023-04-27T23:19:32.513Z,29.90
2023-04-27T23:29:58.443Z,35.90
2023-04-27T23:40:24.206Z,32.80
2023-04-27T23:50:49.860Z,39.00
